createdAt,value
2017-11-14T00:01:59.861Z,28.05
2017-11-14T00:04:27.483Z,24.50
2017-11-14T00:06:55.112Z,22.30
2017-11-14T00:09:23.753Z,22.60
2017-11-14T00:11:51.368Z,22.92
2017-11-14T00:14:18.929Z,22.48
2017-11-14T00:16:46.532Z,26.23
2017-11-14T00:19:14.131Z,21.65
2017-11-14T00:21:42.867Z,22.05
2017-11-14T00:24:10.458Z,27.85
2017-11-14T00:26:38.013Z,29.05
2017-11-14T00:29:05.612Z,24.70
2017-11-14T00:31:33.217Z,20.77
2017-11-14T00:34:00.865Z,27.25
2017-11-14T00:36:28.428Z,25.23
2017-11-14T00:38:56.046Z,21.80
2017-11-14T00:41:24.460Z,24.83
2017-11-14T00:43:52.044Z,23.35
2017-11-14T00:46:19.654Z,26.40
2017-11-14T00:48:48.271Z,20.65
2017-11-14T00:51:15.964Z,28.08
2017-11-14T00:53:43.575Z,24.17
2017-11-14T00:56:11.123Z,25.23
2017-11-14T00:58:38.711Z,32.00
2017-11-14T01:01:06.261Z,24.87
2017-11-14T01:03:33.895Z,28.27
2017-11-14T01:06:01.462Z,27.02
2017-11-14T01:08:33.472Z,25.15
2017-11-14T01:11:02.816Z,28.58
2017-11-14T01:13:30.453Z,34.20
2017-11-14T01:15:58.304Z,33.92
2017-11-14T01:18:26.149Z,27.67
2017-11-14T01:20:54.042Z,39.85
2017-11-14T01:23:21.647Z,29.20
2017-11-14T01:25:50.937Z,44.15
2017-11-14T01:28:18.598Z,35.72
2017-11-14T01:30:47.059Z,32.42
2017-11-14T01:33:15.137Z,32.05
2017-11-14T01:35:43.032Z,32.45
2017-11-14T01:38:11.436Z,41.00
2017-11-14T01:40:39.008Z,30.48
2017-11-14T01:43:06.681Z,35.28
2017-11-14T01:45:34.612Z,28.75
2017-11-14T01:48:02.225Z,34.17
2017-11-14T01:50:31.864Z,30.33
2017-11-14T01:53:00.568Z,32.08
2017-11-14T01:55:28.172Z,28.77
2017-11-14T01:57:58.242Z,38.55
2017-11-14T02:00:37.980Z,36.20
2017-11-14T02:08:09.263Z,37.45
2017-11-14T02:10:37.587Z,36.63
2017-11-14T02:15:37.240Z,33.60
2017-11-14T02:18:05.665Z,43.13
2017-11-14T02:20:34.984Z,33.78
2017-11-14T02:23:03.032Z,36.25
2017-11-14T02:25:30.892Z,34.70
2017-11-14T02:27:58.545Z,28.75
2017-11-14T02:30:26.181Z,35.30
2017-11-14T02:35:26.029Z,34.45
2017-11-14T02:37:55.330Z,35.45
2017-11-14T02:40:23.406Z,33.47
2017-11-14T02:45:23.687Z,31.70
2017-11-14T02:47:51.332Z,37.75
2017-11-14T02:50:18.983Z,34.30
2017-11-14T02:52:46.660Z,38.22
2017-11-14T02:55:14.275Z,37.50
2017-11-14T02:57:43.476Z,39.22
2017-11-14T03:00:11.093Z,38.42
2017-11-14T03:02:38.944Z,43.17
2017-11-14T03:05:06.647Z,39.60
2017-11-14T03:07:34.230Z,38.42
2017-11-14T03:10:02.082Z,36.15
2017-11-14T03:12:30.012Z,40.95
2017-11-14T03:14:57.748Z,39.05
2017-11-14T03:17:27.069Z,39.83
2017-11-14T03:19:58.364Z,32.80
2017-11-14T03:22:29.695Z,37.10
2017-11-14T03:24:57.532Z,36.72
2017-11-14T03:27:25.379Z,45.35
2017-11-14T03:29:57.445Z,47.47
2017-11-14T03:32:26.141Z,32.67
2017-11-14T03:34:54.045Z,45.53
2017-11-14T03:37:21.700Z,40.67
2017-11-14T03:39:49.770Z,39.10
2017-11-14T03:42:21.240Z,37.65
2017-11-14T03:44:48.861Z,35.80
2017-11-14T03:49:48.503Z,41.05
2017-11-14T03:52:17.089Z,39.22
2017-11-14T03:54:44.661Z,37.60
2017-11-14T03:57:12.357Z,40.28
2017-11-14T03:59:39.956Z,38.10
2017-11-14T04:02:08.542Z,43.55
2017-11-14T04:04:37.036Z,36.47
2017-11-14T04:07:04.914Z,34.65
2017-11-14T04:09:32.803Z,37.92
2017-11-14T04:12:00.854Z,34.38
2017-11-14T04:14:28.540Z,41.95
2017-11-14T04:16:56.518Z,46.00
2017-11-14T04:19:24.281Z,40.67
2017-11-14T04:21:52.136Z,40.30
2017-11-14T04:24:19.965Z,40.33
2017-11-14T04:26:48.033Z,41.63
2017-11-14T04:29:16.614Z,41.28
2017-11-14T04:31:44.421Z,40.63
2017-11-14T04:34:12.259Z,41.13
2017-11-14T04:36:40.276Z,37.00
2017-11-14T04:39:08.071Z,42.50
2017-11-14T04:41:36.105Z,35.10
2017-11-14T04:44:03.931Z,38.30
2017-11-14T04:46:32.312Z,45.03
2017-11-14T04:49:00.285Z,38.08
2017-11-14T04:51:28.115Z,35.72
2017-11-14T04:53:56.508Z,47.03
2017-11-14T04:56:24.089Z,37.72
2017-11-14T04:58:51.940Z,35.58
2017-11-14T05:01:19.972Z,38.28
2017-11-14T05:03:48.313Z,33.22
2017-11-14T05:06:17.641Z,34.33
2017-11-14T05:08:45.275Z,28.48
2017-11-14T05:11:12.970Z,35.20
2017-11-14T05:13:40.848Z,40.17
2017-11-14T05:16:08.490Z,36.10
2017-11-14T05:18:36.075Z,33.97
2017-11-14T05:21:04.436Z,45.00
2017-11-14T05:23:33.232Z,34.38
2017-11-14T05:26:00.862Z,35.95
2017-11-14T05:28:29.171Z,34.92
2017-11-14T05:30:56.728Z,38.67
2017-11-14T05:33:24.372Z,37.10
2017-11-14T05:35:51.969Z,37.88
2017-11-14T05:38:21.152Z,38.22
2017-11-14T05:40:50.437Z,36.25
2017-11-14T05:43:18.811Z,42.97
2017-11-14T05:48:20.065Z,39.15
2017-11-14T05:50:48.504Z,40.40
2017-11-14T05:53:16.908Z,46.83
2017-11-14T05:55:45.560Z,34.22
2017-11-14T05:58:14.999Z,41.30
2017-11-14T06:00:43.392Z,42.08
2017-11-14T06:03:11.200Z,37.25
2017-11-14T06:08:13.544Z,40.35
2017-11-14T06:10:41.188Z,44.25
2017-11-14T06:13:09.215Z,39.92
2017-11-14T06:15:36.800Z,42.90
2017-11-14T06:18:04.445Z,37.67
2017-11-14T06:20:32.848Z,41.83
2017-11-14T06:23:00.440Z,43.63
2017-11-14T06:25:28.800Z,34.80
2017-11-14T06:27:56.989Z,37.63
2017-11-14T06:30:24.952Z,36.53
2017-11-14T06:32:52.953Z,35.65
2017-11-14T06:35:21.368Z,44.60
2017-11-14T06:37:49.812Z,46.50
2017-11-14T06:40:17.662Z,41.25
2017-11-14T06:42:45.492Z,45.17
2017-11-14T06:45:16.818Z,42.42
2017-11-14T06:47:44.580Z,50.78
2017-11-14T06:50:12.187Z,41.63
2017-11-14T06:52:40.957Z,39.83
2017-11-14T06:55:08.765Z,54.35
2017-11-14T06:57:39.999Z,46.30
2017-11-14T07:00:07.675Z,42.45
2017-11-14T07:02:35.435Z,42.10
2017-11-14T07:05:06.698Z,40.53
2017-11-14T07:07:35.582Z,45.40
2017-11-14T07:10:05.084Z,62.78
2017-11-14T07:12:33.069Z,67.55
2017-11-14T07:15:00.948Z,54.28
2017-11-14T07:17:29.339Z,57.55
2017-11-14T07:19:58.549Z,74.53
2017-11-14T07:22:26.176Z,65.97
2017-11-14T07:24:53.776Z,62.72
2017-11-14T07:27:21.655Z,59.83
2017-11-14T07:29:49.263Z,61.78
2017-11-14T07:32:17.403Z,58.78
2017-11-14T07:34:45.771Z,62.50
2017-11-14T07:37:13.649Z,59.92
2017-11-14T07:39:41.252Z,62.28
2017-11-14T07:42:08.888Z,58.85
2017-11-14T07:44:36.498Z,64.65
2017-11-14T07:47:04.102Z,81.20
2017-11-14T07:49:31.695Z,67.90
2017-11-14T07:51:59.288Z,66.70
2017-11-14T07:54:26.891Z,67.80
2017-11-14T07:56:54.489Z,67.47
2017-11-14T07:59:22.853Z,73.43
2017-11-14T08:01:50.453Z,66.87
2017-11-14T08:04:18.104Z,75.78
2017-11-14T08:06:45.696Z,74.85
2017-11-14T08:09:13.297Z,66.15
2017-11-14T08:11:40.910Z,67.35
2017-11-14T08:14:08.501Z,56.42
2017-11-14T08:16:36.052Z,62.47
2017-11-14T08:19:03.665Z,62.08
2017-11-14T08:21:31.266Z,67.85
2017-11-14T08:23:58.868Z,64.60
2017-11-14T08:26:26.513Z,63.08
2017-11-14T08:28:54.083Z,56.40
2017-11-14T08:31:21.673Z,53.35
2017-11-14T08:33:49.272Z,63.00
2017-11-14T08:36:16.823Z,47.72
2017-11-14T08:38:44.416Z,53.47
2017-11-14T08:41:12.026Z,53.47
2017-11-14T08:43:39.621Z,54.50
2017-11-14T08:46:07.256Z,58.50
2017-11-14T08:48:35.578Z,47.22
2017-11-14T08:51:03.170Z,61.60
2017-11-14T08:53:31.557Z,43.55
2017-11-14T08:55:59.172Z,45.15
2017-11-14T08:58:26.795Z,40.63
2017-11-14T09:00:54.394Z,49.70
2017-11-14T09:03:21.985Z,41.95
2017-11-14T09:05:49.619Z,50.40
2017-11-14T09:08:17.227Z,46.05
2017-11-14T09:10:44.794Z,48.55
2017-11-14T09:13:12.378Z,36.50
2017-11-14T09:15:40.039Z,37.13
2017-11-14T09:18:07.652Z,35.03
2017-11-14T09:20:36.078Z,39.38
2017-11-14T09:23:03.712Z,38.58
2017-11-14T09:25:31.333Z,27.42
2017-11-14T09:27:58.946Z,26.15
2017-11-14T09:30:27.309Z,31.40
2017-11-14T09:32:54.993Z,28.70
2017-11-14T09:35:22.623Z,32.00
2017-11-14T09:37:50.233Z,27.65
2017-11-14T09:40:17.839Z,34.25
2017-11-14T09:42:46.217Z,34.05
2017-11-14T09:45:14.622Z,35.60
2017-11-14T09:47:42.216Z,38.65
2017-11-14T09:50:09.835Z,34.95
2017-11-14T09:52:37.482Z,51.90
2017-11-14T09:55:05.856Z,59.25
2017-11-14T09:57:33.526Z,103.75
2017-11-14T10:00:01.122Z,94.45
2017-11-14T10:02:28.723Z,88.72
2017-11-14T10:04:56.335Z,95.35
2017-11-14T10:07:23.961Z,81.35
2017-11-14T10:09:52.542Z,48.00
2017-11-14T10:12:20.886Z,45.28
2017-11-14T10:14:48.505Z,38.78
2017-11-14T10:17:16.120Z,33.35
2017-11-14T10:19:43.716Z,44.85
2017-11-14T10:22:11.344Z,58.17
2017-11-14T10:24:38.953Z,28.35
2017-11-14T10:27:06.533Z,30.55
2017-11-14T10:29:34.136Z,25.02
2017-11-14T10:32:01.842Z,35.78
2017-11-14T10:34:29.413Z,42.55
2017-11-14T10:36:56.943Z,44.25
2017-11-14T10:39:25.354Z,36.15
2017-11-14T10:41:52.963Z,24.83
2017-11-14T10:44:20.578Z,80.00
2017-11-14T10:46:48.152Z,43.30
2017-11-14T10:49:15.763Z,23.87
2017-11-14T10:51:43.387Z,44.33
2017-11-14T10:54:11.004Z,30.30
2017-11-14T10:56:38.587Z,32.15
2017-11-14T10:59:06.225Z,26.12
2017-11-14T11:01:33.850Z,25.30
2017-11-14T11:04:01.445Z,25.10
2017-11-14T11:06:29.053Z,31.83
2017-11-14T11:08:56.631Z,29.15
2017-11-14T11:11:24.248Z,23.25
2017-11-14T11:13:51.963Z,18.25
2017-11-14T11:16:32.597Z,18.52
2017-11-14T11:19:00.225Z,16.00
2017-11-14T11:21:27.853Z,21.23
2017-11-14T11:23:55.455Z,24.40
2017-11-14T11:26:23.124Z,18.00
2017-11-14T11:28:50.724Z,21.50
2017-11-14T11:31:18.328Z,22.23
2017-11-14T11:33:45.956Z,18.55
2017-11-14T11:36:13.552Z,18.62
2017-11-14T11:38:41.144Z,17.90
2017-11-14T11:41:08.753Z,17.45
2017-11-14T11:43:37.120Z,25.55
2017-11-14T11:46:04.712Z,24.67
2017-11-14T11:48:32.275Z,18.17
2017-11-14T11:50:59.872Z,20.92
2017-11-14T11:53:27.501Z,22.23
2017-11-14T11:55:55.113Z,19.02
2017-11-14T11:58:22.666Z,19.87
2017-11-14T12:00:50.344Z,11.35
2017-11-14T12:03:17.985Z,16.42
2017-11-14T12:05:45.602Z,15.68
2017-11-14T12:08:13.260Z,11.35
2017-11-14T12:10:40.886Z,17.08
2017-11-14T12:13:08.490Z,11.50
2017-11-14T12:15:36.084Z,21.35
2017-11-14T12:18:03.697Z,14.35
2017-11-14T12:20:31.302Z,14.98
2017-11-14T12:22:58.881Z,15.85
2017-11-14T12:25:26.489Z,16.65
2017-11-14T12:27:54.161Z,17.05
2017-11-14T12:30:21.787Z,22.85
2017-11-14T12:32:49.400Z,22.65
2017-11-14T12:35:17.048Z,14.65
2017-11-14T12:37:45.057Z,20.75
2017-11-14T12:40:15.760Z,17.33
2017-11-14T12:42:43.358Z,20.35
2017-11-14T12:45:10.958Z,27.80
2017-11-14T12:47:38.524Z,42.47
2017-11-14T12:50:06.120Z,35.15
2017-11-14T12:52:33.715Z,29.12
2017-11-14T12:55:02.077Z,22.65
2017-11-14T12:57:29.669Z,17.27
2017-11-14T12:59:57.305Z,33.60
2017-11-14T13:02:24.901Z,35.97
2017-11-14T13:04:52.517Z,42.15
2017-11-14T13:07:20.124Z,66.22
2017-11-14T13:09:47.730Z,29.60
2017-11-14T13:12:15.373Z,50.83
2017-11-14T13:14:42.977Z,54.92
2017-11-14T13:17:10.592Z,32.30
2017-11-14T13:19:38.196Z,20.00
2017-11-14T13:22:05.789Z,30.00
2017-11-14T13:24:34.489Z,17.95
2017-11-14T13:27:02.053Z,20.80
2017-11-14T13:29:29.692Z,16.12
2017-11-14T13:31:57.373Z,18.12
2017-11-14T13:34:25.103Z,16.52
2017-11-14T13:36:53.769Z,18.58
2017-11-14T13:39:24.735Z,27.48
2017-11-14T13:41:52.592Z,13.32
2017-11-14T13:44:21.174Z,14.57
2017-11-14T13:46:49.337Z,14.30
2017-11-14T13:49:17.317Z,21.60
2017-11-14T13:51:45.253Z,11.63
2017-11-14T13:54:13.363Z,13.02
2017-11-14T13:56:41.813Z,15.05
2017-11-14T13:59:10.365Z,10.63
2017-11-14T14:01:37.978Z,13.62
2017-11-14T14:04:07.033Z,11.55
2017-11-14T14:06:36.522Z,12.48
2017-11-14T14:09:05.112Z,13.68
2017-11-14T14:11:33.136Z,14.75
2017-11-14T14:14:01.204Z,13.73
2017-11-14T14:16:29.188Z,14.43
2017-11-14T14:18:57.237Z,7.97
2017-11-14T14:21:25.073Z,8.18
2017-11-14T14:23:53.115Z,10.32
2017-11-14T14:26:21.211Z,15.48
2017-11-14T14:28:50.037Z,10.13
2017-11-14T14:31:18.172Z,15.02
2017-11-14T14:33:46.289Z,10.98
2017-11-14T14:36:14.727Z,19.90
2017-11-14T14:38:42.975Z,19.98
2017-11-14T14:41:11.282Z,14.77
2017-11-14T14:43:40.076Z,54.67
2017-11-14T14:46:08.183Z,35.83
2017-11-14T14:48:36.396Z,80.72
2017-11-14T14:51:04.594Z,56.65
2017-11-14T14:53:32.765Z,77.43
2017-11-14T14:56:01.010Z,44.47
2017-11-14T14:58:29.012Z,34.97
2017-11-14T15:00:57.091Z,19.20
2017-11-14T15:03:25.755Z,20.65
2017-11-14T15:05:53.826Z,12.20
2017-11-14T15:08:22.063Z,17.87
2017-11-14T15:10:50.196Z,13.18
2017-11-14T15:13:18.310Z,18.37
2017-11-14T15:15:47.408Z,11.10
2017-11-14T15:18:15.532Z,12.20
2017-11-14T15:20:43.706Z,8.95
2017-11-14T15:23:12.010Z,12.63
2017-11-14T15:25:40.875Z,11.63
2017-11-14T15:28:09.081Z,10.27
2017-11-14T15:30:37.326Z,12.88
2017-11-14T15:33:05.421Z,11.63
2017-11-14T15:35:33.572Z,29.52
2017-11-14T15:38:01.684Z,57.20
2017-11-14T15:40:29.817Z,46.55
2017-11-14T15:43:02.639Z,57.45
2017-11-14T15:45:31.901Z,68.35
2017-11-14T15:48:01.187Z,42.42
2017-11-14T15:50:37.238Z,62.85
2017-11-14T15:53:05.471Z,27.13
2017-11-14T15:55:36.296Z,49.13
2017-11-14T15:58:06.363Z,58.87
2017-11-14T16:00:36.344Z,17.92
2017-11-14T16:03:04.624Z,21.58
2017-11-14T16:05:32.909Z,14.98
2017-11-14T16:08:01.189Z,15.55
2017-11-14T16:10:29.515Z,14.02
2017-11-14T16:12:57.657Z,18.12
2017-11-14T16:15:25.864Z,18.73
2017-11-14T16:17:54.346Z,12.00
2017-11-14T16:20:22.490Z,19.87
2017-11-14T16:22:51.762Z,13.15
2017-11-14T16:25:20.062Z,15.48
2017-11-14T16:27:48.199Z,28.48
2017-11-14T16:30:16.487Z,27.60
2017-11-14T16:32:44.654Z,18.35
2017-11-14T16:35:12.953Z,31.02
2017-11-14T16:37:43.162Z,37.50
2017-11-14T16:40:14.976Z,59.88
2017-11-14T16:42:43.684Z,41.33
2017-11-14T16:45:12.792Z,39.97
2017-11-14T16:47:41.650Z,28.23
2017-11-14T16:50:10.316Z,23.95
2017-11-14T16:52:38.710Z,33.80
2017-11-14T16:55:07.609Z,28.42
2017-11-14T16:57:36.196Z,25.42
2017-11-14T17:00:06.087Z,27.10
2017-11-14T17:02:34.239Z,32.45
2017-11-14T17:05:03.859Z,30.73
2017-11-14T17:07:32.677Z,25.73
2017-11-14T17:10:00.992Z,30.73
2017-11-14T17:12:29.481Z,29.42
2017-11-14T17:14:57.710Z,41.83
2017-11-14T17:17:26.156Z,59.03
2017-11-14T17:19:55.716Z,67.85
2017-11-14T17:22:23.898Z,61.65
2017-11-14T17:24:52.036Z,66.30
2017-11-14T17:27:20.247Z,73.90
2017-11-14T17:29:48.431Z,68.37
2017-11-14T17:32:16.724Z,56.28
2017-11-14T17:34:45.976Z,41.37
2017-11-14T17:37:14.689Z,27.48
2017-11-14T17:51:37.552Z,39.47
2017-11-14T18:00:01.516Z,33.03
2017-11-14T18:08:26.034Z,31.55
2017-11-14T18:14:13.669Z,27.17
2017-11-14T18:31:14.065Z,29.05
2017-11-14T18:33:50.439Z,33.45
2017-11-14T18:36:20.631Z,35.47
2017-11-14T18:38:49.287Z,37.50
2017-11-14T18:41:18.931Z,36.90
2017-11-14T18:43:47.305Z,32.75
2017-11-14T18:49:24.718Z,37.47
2017-11-14T18:51:53.920Z,30.75
2017-11-14T18:54:22.262Z,43.05
2017-11-14T18:56:50.477Z,38.92
2017-11-14T18:59:21.589Z,40.03
2017-11-14T19:01:49.811Z,49.35
2017-11-14T19:04:18.543Z,42.78
2017-11-14T19:06:46.819Z,36.88
2017-11-14T19:09:16.943Z,38.45
2017-11-14T19:11:52.841Z,37.53
2017-11-14T19:14:21.154Z,36.70
2017-11-14T19:16:50.690Z,34.50
2017-11-14T19:19:18.976Z,32.17
2017-11-14T19:21:47.341Z,32.50
2017-11-14T19:24:16.252Z,43.42
2017-11-14T19:26:44.877Z,29.90
2017-11-14T19:31:58.029Z,33.28
2017-11-14T19:34:27.433Z,20.65
2017-11-14T19:36:56.488Z,32.33
2017-11-14T19:39:27.474Z,34.90
2017-11-14T19:41:57.568Z,31.83
2017-11-14T19:44:32.039Z,33.55
2017-11-14T19:47:02.229Z,35.03
2017-11-14T19:49:31.436Z,30.70
2017-11-14T19:52:02.585Z,27.35
2017-11-14T19:54:34.361Z,27.77
2017-11-14T19:57:09.566Z,29.20
2017-11-14T19:59:38.676Z,21.75
2017-11-14T20:02:09.168Z,26.05
2017-11-14T20:04:38.527Z,22.00
2017-11-14T20:07:07.717Z,21.90
2017-11-14T20:09:37.575Z,19.42
2017-11-14T20:12:06.245Z,22.17
2017-11-14T20:14:34.763Z,29.70
2017-11-14T20:17:03.336Z,28.77
2017-11-14T20:19:31.717Z,14.45
2017-11-14T20:22:00.758Z,23.25
2017-11-14T20:24:29.443Z,26.33
2017-11-14T20:26:58.761Z,22.15
2017-11-14T20:29:28.298Z,31.40
2017-11-14T20:31:57.805Z,20.42
2017-11-14T20:34:50.946Z,16.33
2017-11-14T20:37:25.082Z,15.02
2017-11-14T20:39:53.245Z,13.30
2017-11-14T20:42:38.633Z,23.95
2017-11-14T20:45:07.653Z,19.20
2017-11-14T20:47:39.848Z,18.87
2017-11-14T20:50:11.520Z,18.02
2017-11-14T20:52:39.719Z,24.98
2017-11-14T20:55:08.867Z,18.17
2017-11-14T20:57:37.399Z,20.62
2017-11-14T21:00:05.728Z,26.17
2017-11-14T21:02:44.260Z,26.40
2017-11-14T21:05:12.574Z,18.58
2017-11-14T21:07:40.929Z,26.40
2017-11-14T21:10:09.117Z,17.17
2017-11-14T21:12:37.296Z,18.98
2017-11-14T21:15:07.641Z,23.70
2017-11-14T21:17:37.014Z,22.98
2017-11-14T21:20:05.425Z,24.23
2017-11-14T21:22:34.291Z,20.33
2017-11-14T21:25:02.840Z,22.98
2017-11-14T21:30:37.135Z,20.98
2017-11-14T21:33:15.359Z,16.10
2017-11-14T21:35:43.665Z,20.90
2017-11-14T21:38:23.240Z,27.50
2017-11-14T21:40:51.371Z,23.45
2017-11-14T21:43:19.547Z,18.05
2017-11-14T21:45:47.714Z,20.88
2017-11-14T21:48:15.920Z,18.65
2017-11-14T21:50:43.688Z,26.20
2017-11-14T21:53:11.456Z,23.33
2017-11-14T21:55:39.048Z,22.83
2017-11-14T21:58:07.365Z,21.83
2017-11-14T22:00:35.011Z,23.10
2017-11-14T22:03:02.779Z,28.27
2017-11-14T22:05:30.593Z,25.45
2017-11-14T22:07:58.194Z,18.60
2017-11-14T22:10:26.736Z,15.77
2017-11-14T22:12:54.309Z,16.95
2017-11-14T22:15:23.128Z,15.93
2017-11-14T22:17:50.721Z,16.27
2017-11-14T22:20:18.377Z,17.90
2017-11-14T22:22:45.970Z,14.45
2017-11-14T22:25:13.520Z,13.68
2017-11-14T22:27:41.130Z,16.70
2017-11-14T22:30:08.760Z,15.80
2017-11-14T22:32:36.361Z,19.33
2017-11-14T22:35:03.978Z,18.20
2017-11-14T22:37:31.591Z,15.27
2017-11-14T22:39:59.292Z,15.80
2017-11-14T22:42:27.002Z,18.83
2017-11-14T22:44:54.635Z,15.80
2017-11-14T22:47:23.000Z,22.73
2017-11-14T22:49:50.636Z,22.60
2017-11-14T22:52:18.959Z,22.75
2017-11-14T22:54:47.316Z,20.90
2017-11-14T22:57:14.916Z,22.17
2017-11-14T22:59:42.556Z,23.05
2017-11-14T23:02:11.035Z,25.98
2017-11-14T23:04:39.622Z,28.25
2017-11-14T23:07:07.975Z,23.50
2017-11-14T23:09:36.207Z,23.65
2017-11-14T23:12:03.857Z,24.33
2017-11-14T23:14:31.469Z,20.20
2017-11-14T23:16:59.033Z,26.10
2017-11-14T23:19:26.635Z,19.17
2017-11-14T23:21:54.268Z,26.80
2017-11-14T23:24:21.800Z,26.48
2017-11-14T23:26:49.491Z,24.87
2017-11-14T23:29:17.064Z,28.15
2017-11-14T23:31:45.396Z,24.58
2017-11-14T23:34:13.184Z,27.02
2017-11-14T23:36:40.787Z,20.08
2017-11-14T23:39:08.411Z,25.73
2017-11-14T23:41:36.737Z,26.83
2017-11-14T23:44:04.661Z,23.55
2017-11-14T23:46:32.329Z,24.50
2017-11-14T23:49:00.721Z,24.25
2017-11-14T23:51:29.687Z,28.08
2017-11-14T23:53:57.210Z,25.58
2017-11-14T23:56:24.790Z,29.05
2017-11-14T23:58:52.412Z,21.52
